createdAt,value
2017-08-31T00:01:58.131Z,22.80
2017-08-31T00:04:59.484Z,22.93
2017-08-31T00:08:01.057Z,22.03
2017-08-31T00:11:02.397Z,21.07
2017-08-31T00:14:03.745Z,23.17
2017-08-31T00:17:05.065Z,23.27
2017-08-31T00:20:06.425Z,22.87
2017-08-31T00:23:07.729Z,25.10
2017-08-31T00:26:09.076Z,25.20
2017-08-31T00:29:10.447Z,21.93
2017-08-31T00:32:12.618Z,23.13
2017-08-31T00:35:14.087Z,22.97
2017-08-31T00:38:15.469Z,20.80
2017-08-31T00:41:16.853Z,20.63
2017-08-31T00:44:18.226Z,19.20
2017-08-31T00:47:19.697Z,21.93
2017-08-31T00:50:21.057Z,22.23
2017-08-31T00:53:22.461Z,23.50
2017-08-31T00:56:23.899Z,21.70
2017-08-31T00:59:25.281Z,22.90
2017-08-31T01:02:26.658Z,23.13
2017-08-31T01:05:28.062Z,24.17
2017-08-31T01:08:29.441Z,24.97
2017-08-31T01:11:30.854Z,25.00
2017-08-31T01:14:32.176Z,27.27
2017-08-31T01:17:33.707Z,28.80
2017-08-31T01:20:35.072Z,28.43
2017-08-31T01:23:36.459Z,30.03
2017-08-31T01:26:37.800Z,29.00
2017-08-31T01:29:39.214Z,30.57
2017-08-31T01:32:40.573Z,30.17
2017-08-31T01:35:41.962Z,33.93
2017-08-31T01:38:43.687Z,31.37
2017-08-31T01:41:45.061Z,34.27
2017-08-31T01:44:46.481Z,32.87
2017-08-31T01:47:47.845Z,36.63
2017-08-31T01:50:49.215Z,34.87
2017-08-31T01:53:50.557Z,31.93
2017-08-31T01:56:51.955Z,28.50
2017-08-31T01:59:53.283Z,27.03
2017-08-31T02:02:54.661Z,25.60
2017-08-31T02:05:56.034Z,25.90
2017-08-31T02:08:57.357Z,24.53
2017-08-31T02:11:58.698Z,24.80
2017-08-31T02:15:00.013Z,24.00
2017-08-31T02:18:01.368Z,22.43
2017-08-31T02:21:02.698Z,22.13
2017-08-31T02:24:04.074Z,23.23
2017-08-31T02:27:05.823Z,24.07
2017-08-31T02:30:07.173Z,25.33
2017-08-31T02:33:08.573Z,25.67
2017-08-31T02:36:09.958Z,25.90
2017-08-31T02:39:11.338Z,31.23
2017-08-31T02:42:12.676Z,32.07
2017-08-31T02:45:14.033Z,34.80
2017-08-31T02:48:15.382Z,34.93
2017-08-31T02:51:16.746Z,37.40
2017-08-31T02:54:18.083Z,38.10
2017-08-31T02:57:19.439Z,41.77
2017-08-31T03:00:20.805Z,41.30
2017-08-31T03:03:22.150Z,38.77
2017-08-31T03:06:23.509Z,31.57
2017-08-31T03:09:24.798Z,31.43
2017-08-31T03:12:26.176Z,29.00
2017-08-31T03:15:27.380Z,20.00
2017-08-31T03:18:28.757Z,12.70
2017-08-31T03:21:30.315Z,15.20
2017-08-31T03:24:31.638Z,17.90
2017-08-31T03:27:32.994Z,20.07
2017-08-31T03:30:34.341Z,19.20
2017-08-31T03:33:35.667Z,20.37
2017-08-31T03:36:36.961Z,21.70
2017-08-31T03:39:38.306Z,26.70
2017-08-31T03:42:39.637Z,28.93
2017-08-31T03:45:40.982Z,33.30
2017-08-31T03:48:42.335Z,35.60
2017-08-31T03:51:43.642Z,36.00
2017-08-31T03:54:45.411Z,35.13
2017-08-31T03:57:47.192Z,30.83
2017-08-31T04:00:48.551Z,27.17
2017-08-31T04:03:50.605Z,27.00
2017-08-31T04:06:51.992Z,26.07
2017-08-31T04:09:53.441Z,23.60
2017-08-31T04:12:54.759Z,20.03
2017-08-31T04:15:56.102Z,20.20
2017-08-31T04:18:57.423Z,21.03
2017-08-31T04:21:58.777Z,19.77
2017-08-31T04:25:00.113Z,22.53
2017-08-31T04:28:02.192Z,19.20
2017-08-31T04:31:03.558Z,18.40
2017-08-31T04:34:04.886Z,19.50
2017-08-31T04:37:06.209Z,20.17
2017-08-31T04:40:07.534Z,20.27
2017-08-31T04:43:08.902Z,21.40
2017-08-31T04:46:10.226Z,21.70
2017-08-31T04:49:11.582Z,20.27
2017-08-31T04:52:12.896Z,22.53
2017-08-31T04:55:14.261Z,23.57
2017-08-31T04:58:15.890Z,21.97
2017-08-31T05:01:17.258Z,23.17
2017-08-31T05:04:18.648Z,22.93
2017-08-31T05:07:20.055Z,19.40
2017-08-31T05:10:21.413Z,21.50
2017-08-31T05:13:22.733Z,20.70
2017-08-31T05:16:24.088Z,22.83
2017-08-31T05:19:25.563Z,24.83
2017-08-31T05:22:26.971Z,22.60
2017-08-31T05:25:28.374Z,19.57
2017-08-31T05:28:29.717Z,16.40
2017-08-31T05:31:31.092Z,15.37
2017-08-31T05:34:39.330Z,16.00
2017-08-31T05:37:40.698Z,15.43
2017-08-31T05:40:42.462Z,14.47
2017-08-31T05:43:43.829Z,15.83
2017-08-31T05:46:45.220Z,18.77
2017-08-31T05:49:46.560Z,14.77
2017-08-31T05:52:47.917Z,12.70
2017-08-31T05:55:49.279Z,11.23
2017-08-31T05:58:50.658Z,9.20
2017-08-31T06:01:52.049Z,9.37
2017-08-31T06:04:53.397Z,9.83
2017-08-31T06:07:54.774Z,9.57
2017-08-31T06:10:56.131Z,8.50
2017-08-31T06:13:57.491Z,9.77
2017-08-31T06:16:58.822Z,11.17
2017-08-31T06:20:00.163Z,11.10
2017-08-31T06:23:01.884Z,11.20
2017-08-31T06:26:03.191Z,11.57
2017-08-31T06:29:04.538Z,11.87
2017-08-31T06:32:05.852Z,13.90
2017-08-31T06:35:07.239Z,13.27
2017-08-31T06:38:08.581Z,13.27
2017-08-31T06:41:09.966Z,12.33
2017-08-31T06:44:11.333Z,11.80
2017-08-31T06:47:12.653Z,11.40
2017-08-31T06:50:14.023Z,11.13
2017-08-31T06:53:15.315Z,11.47
2017-08-31T06:56:16.668Z,10.40
2017-08-31T06:59:17.999Z,7.93
2017-08-31T07:02:19.381Z,8.40
2017-08-31T07:05:21.190Z,7.40
2017-08-31T07:08:22.489Z,5.90
2017-08-31T07:11:23.802Z,5.43
2017-08-31T07:14:25.118Z,4.20
2017-08-31T07:17:26.467Z,4.03
2017-08-31T07:20:27.750Z,4.70
2017-08-31T07:23:29.097Z,3.80
2017-08-31T07:26:30.425Z,5.10
2017-08-31T07:29:31.793Z,4.87
2017-08-31T07:32:33.166Z,3.17
2017-08-31T07:35:34.469Z,3.20
2017-08-31T07:38:35.832Z,3.50
2017-08-31T07:41:37.166Z,3.67
2017-08-31T07:44:38.514Z,3.23
2017-08-31T07:47:39.829Z,3.43
2017-08-31T07:50:41.200Z,3.03
2017-08-31T07:53:42.532Z,2.60
2017-08-31T07:56:43.868Z,2.43
2017-08-31T07:59:45.171Z,2.87
2017-08-31T08:02:53.512Z,2.27
2017-08-31T08:05:54.883Z,2.40
2017-08-31T08:08:56.226Z,3.50
2017-08-31T08:11:57.535Z,2.87
2017-08-31T08:14:58.883Z,3.27
2017-08-31T08:18:00.206Z,3.77
2017-08-31T08:21:01.534Z,3.70
2017-08-31T08:24:02.886Z,3.63
2017-08-31T08:27:04.187Z,4.23
2017-08-31T08:30:05.545Z,3.83
2017-08-31T08:33:06.858Z,5.07
2017-08-31T08:36:08.204Z,5.90
2017-08-31T08:39:09.667Z,5.73
2017-08-31T08:42:10.970Z,5.37
2017-08-31T08:45:12.333Z,5.70
2017-08-31T08:48:13.649Z,5.60
2017-08-31T08:51:15.024Z,6.30
2017-08-31T08:54:16.344Z,5.17
2017-08-31T08:57:24.633Z,6.53
2017-08-31T09:00:26.122Z,5.13
2017-08-31T09:03:27.446Z,5.93
2017-08-31T09:06:28.842Z,5.17
2017-08-31T09:09:30.151Z,4.00
2017-08-31T09:12:31.538Z,3.50
2017-08-31T09:15:32.850Z,4.13
2017-08-31T09:18:34.210Z,4.60
2017-08-31T09:21:35.697Z,4.40
2017-08-31T09:24:37.015Z,3.20
2017-08-31T09:27:38.333Z,4.20
2017-08-31T09:30:39.677Z,5.17
2017-08-31T09:33:41.059Z,5.40
2017-08-31T09:36:42.369Z,6.10
2017-08-31T09:39:43.725Z,7.80
2017-08-31T09:42:45.174Z,7.10
2017-08-31T09:45:46.482Z,6.97
2017-08-31T09:48:47.840Z,6.33
2017-08-31T09:51:49.179Z,8.13
2017-08-31T09:54:50.561Z,7.93
2017-08-31T09:57:51.860Z,7.60
2017-08-31T10:00:53.225Z,9.10
2017-08-31T10:03:54.677Z,9.13
2017-08-31T10:06:56.015Z,10.13
2017-08-31T10:09:57.352Z,9.90
2017-08-31T10:12:58.674Z,9.10
2017-08-31T10:16:00.073Z,7.93
2017-08-31T10:19:01.367Z,7.40
2017-08-31T10:22:02.695Z,6.67
2017-08-31T10:25:04.201Z,5.43
2017-08-31T10:28:05.573Z,4.97
2017-08-31T10:31:06.941Z,4.10
2017-08-31T10:34:08.289Z,5.47
2017-08-31T10:37:09.645Z,5.37
2017-08-31T10:40:10.998Z,3.83
2017-08-31T10:43:12.397Z,3.97
2017-08-31T10:46:13.741Z,3.23
2017-08-31T10:49:15.086Z,2.67
2017-08-31T10:52:16.461Z,2.20
2017-08-31T10:55:17.810Z,3.07
2017-08-31T10:58:19.194Z,2.70
2017-08-31T11:01:20.550Z,2.63
2017-08-31T11:04:21.900Z,3.53
2017-08-31T11:07:23.664Z,5.07
2017-08-31T11:10:25.010Z,4.80
2017-08-31T11:13:26.432Z,4.97
2017-08-31T11:16:27.801Z,5.73
2017-08-31T11:19:29.163Z,5.47
2017-08-31T11:22:30.487Z,5.90
2017-08-31T11:25:31.873Z,5.43
2017-08-31T11:28:33.343Z,8.07
2017-08-31T11:31:34.637Z,7.10
2017-08-31T11:34:36.013Z,5.80
2017-08-31T11:37:37.254Z,4.03
2017-08-31T11:40:38.578Z,3.30
2017-08-31T11:43:39.880Z,2.77
2017-08-31T11:46:41.207Z,2.70
2017-08-31T11:49:42.522Z,3.40
2017-08-31T11:52:43.854Z,3.30
2017-08-31T11:55:45.185Z,3.40
2017-08-31T11:58:46.473Z,3.33
2017-08-31T12:01:47.829Z,3.10
2017-08-31T12:04:49.297Z,1.97
2017-08-31T12:07:50.638Z,1.87
2017-08-31T12:10:52.025Z,2.00
2017-08-31T12:13:53.359Z,2.37
2017-08-31T12:16:54.715Z,1.97
2017-08-31T12:19:56.035Z,2.27
2017-08-31T12:22:57.386Z,2.90
2017-08-31T12:25:58.725Z,3.33
2017-08-31T12:29:00.080Z,3.70
2017-08-31T12:32:01.362Z,3.80
2017-08-31T12:35:02.721Z,3.30
2017-08-31T12:38:04.267Z,3.23
2017-08-31T12:41:05.581Z,4.23
2017-08-31T12:44:06.914Z,4.57
2017-08-31T12:47:08.216Z,5.00
2017-08-31T12:50:09.544Z,4.60
2017-08-31T12:53:10.860Z,4.40
2017-08-31T12:56:12.219Z,4.33
2017-08-31T12:59:13.519Z,4.93
2017-08-31T13:02:14.855Z,5.33
2017-08-31T13:05:16.171Z,5.10
2017-08-31T13:08:17.545Z,44.00
2017-08-31T13:11:18.869Z,15.33
2017-08-31T13:14:20.173Z,5.87
2017-08-31T13:17:21.514Z,5.13
2017-08-31T13:20:22.820Z,4.83
2017-08-31T13:23:24.181Z,5.00
2017-08-31T13:26:25.507Z,5.77
2017-08-31T13:29:27.606Z,5.67
2017-08-31T13:32:29.278Z,3.83
2017-08-31T13:35:31.375Z,5.10
2017-08-31T13:38:32.709Z,4.80
2017-08-31T13:41:34.041Z,4.13
2017-08-31T13:44:35.393Z,5.20
2017-08-31T13:47:36.726Z,5.00
2017-08-31T13:50:38.055Z,10.73
2017-08-31T13:53:39.655Z,4.63
2017-08-31T13:56:40.985Z,3.67
2017-08-31T13:59:42.341Z,5.17
2017-08-31T14:02:43.685Z,4.07
2017-08-31T14:05:45.018Z,3.50
2017-08-31T14:08:46.362Z,3.60
2017-08-31T14:11:47.720Z,3.47
2017-08-31T14:14:49.052Z,3.37
2017-08-31T14:17:50.401Z,3.80
2017-08-31T14:20:51.770Z,4.23
2017-08-31T14:23:53.077Z,4.10
2017-08-31T14:26:54.683Z,4.90
2017-08-31T14:29:56.013Z,4.20
2017-08-31T14:32:57.381Z,3.80
2017-08-31T14:35:58.979Z,3.97
2017-08-31T14:39:00.286Z,4.07
2017-08-31T14:42:01.631Z,3.73
2017-08-31T14:45:03.014Z,4.60
2017-08-31T14:48:04.359Z,2.93
2017-08-31T14:51:05.649Z,2.10
2017-08-31T14:54:07.014Z,3.40
2017-08-31T14:57:08.353Z,2.07
2017-08-31T15:00:09.780Z,2.33
2017-08-31T15:03:12.670Z,2.97
2017-08-31T15:06:13.978Z,2.47
2017-08-31T15:09:15.345Z,1.87
2017-08-31T15:12:16.646Z,3.40
2017-08-31T15:15:18.030Z,3.20
2017-08-31T15:18:19.367Z,2.73
2017-08-31T15:21:20.696Z,3.30
2017-08-31T15:24:22.034Z,2.57
2017-08-31T15:27:23.393Z,2.30
2017-08-31T15:30:24.770Z,3.27
2017-08-31T15:33:26.317Z,2.03
2017-08-31T15:36:27.699Z,2.37
2017-08-31T15:39:29.191Z,2.73
2017-08-31T15:42:30.593Z,2.27
2017-08-31T15:45:32.177Z,3.20
2017-08-31T15:48:33.885Z,2.43
2017-08-31T15:51:36.214Z,2.20
2017-08-31T15:54:37.788Z,2.30
2017-08-31T15:57:39.929Z,2.40
2017-08-31T16:00:41.241Z,2.63
2017-08-31T16:03:42.683Z,2.90
2017-08-31T16:06:44.020Z,2.90
2017-08-31T16:09:45.810Z,3.20
2017-08-31T16:12:47.143Z,3.33
2017-08-31T16:15:48.486Z,3.30
2017-08-31T16:18:49.895Z,2.90
2017-08-31T16:21:51.234Z,3.40
2017-08-31T16:24:52.602Z,2.23
2017-08-31T16:27:53.947Z,2.90
2017-08-31T16:30:55.297Z,3.03
2017-08-31T16:33:56.618Z,4.60
2017-08-31T16:36:59.851Z,3.50
2017-08-31T16:40:01.183Z,3.13
2017-08-31T16:43:02.631Z,3.57
2017-08-31T16:46:04.195Z,3.10
2017-08-31T16:49:05.516Z,2.97
2017-08-31T16:52:07.047Z,3.10
2017-08-31T16:55:08.357Z,3.00
2017-08-31T16:58:09.729Z,3.07
2017-08-31T17:01:18.047Z,3.03
2017-08-31T17:04:19.410Z,2.90
2017-08-31T17:07:20.725Z,3.00
2017-08-31T17:10:22.477Z,3.60
2017-08-31T17:13:23.823Z,3.30
2017-08-31T17:16:25.150Z,3.10
2017-08-31T17:19:26.487Z,3.17
2017-08-31T17:22:27.839Z,3.00
2017-08-31T17:25:29.173Z,2.60
2017-08-31T17:28:30.480Z,2.70
2017-08-31T17:31:31.838Z,3.60
2017-08-31T17:34:33.185Z,2.77
2017-08-31T17:37:34.549Z,2.93
2017-08-31T17:40:36.326Z,2.70
2017-08-31T17:43:37.728Z,2.90
2017-08-31T17:46:39.214Z,2.90
2017-08-31T17:49:40.525Z,4.23
2017-08-31T17:52:41.866Z,3.20
2017-08-31T17:55:43.274Z,3.50
2017-08-31T17:58:44.685Z,2.70
2017-08-31T18:01:46.018Z,2.50
2017-08-31T18:04:47.370Z,3.10
2017-08-31T18:07:48.744Z,2.43
2017-08-31T18:10:50.152Z,2.90
2017-08-31T18:13:51.484Z,57.13
2017-08-31T18:16:52.769Z,3.00
2017-08-31T18:19:54.077Z,3.13
2017-08-31T18:22:55.526Z,3.30
2017-08-31T18:25:57.593Z,3.00
2017-08-31T18:28:58.961Z,2.83
2017-08-31T18:32:00.277Z,3.20
2017-08-31T18:35:01.799Z,2.93
2017-08-31T18:38:04.476Z,2.80
2017-08-31T18:41:06.388Z,2.80
2017-08-31T18:44:07.844Z,2.17
2017-08-31T18:47:09.566Z,3.07
2017-08-31T18:50:11.388Z,3.37
2017-08-31T18:53:13.217Z,3.00
2017-08-31T18:56:14.600Z,3.80
2017-08-31T18:59:15.901Z,3.10
2017-08-31T19:02:18.747Z,3.70
2017-08-31T19:05:21.021Z,8.40
2017-08-31T19:08:24.644Z,4.27
2017-08-31T19:11:26.419Z,3.10
2017-08-31T19:14:29.465Z,3.23
2017-08-31T19:17:30.766Z,2.90
2017-08-31T19:20:33.386Z,3.30
2017-08-31T19:23:36.673Z,3.17
2017-08-31T19:26:37.958Z,3.33
2017-08-31T19:29:39.352Z,4.27
2017-08-31T19:32:41.177Z,4.90
2017-08-31T19:35:43.474Z,4.20
2017-08-31T19:38:45.561Z,2.93
2017-08-31T19:41:48.030Z,3.20
2017-08-31T19:44:49.721Z,3.20
2017-08-31T19:47:51.861Z,3.30
2017-08-31T19:50:53.185Z,3.83
2017-08-31T19:53:54.994Z,3.70
2017-08-31T19:56:56.393Z,3.80
2017-08-31T19:59:57.693Z,3.17
2017-08-31T20:03:00.093Z,3.77
2017-08-31T20:06:01.449Z,5.83
2017-08-31T20:09:03.017Z,3.67
2017-08-31T20:12:05.630Z,3.07
2017-08-31T20:15:06.962Z,3.30
2017-08-31T20:18:08.289Z,2.90
2017-08-31T20:21:09.601Z,3.27
2017-08-31T20:24:11.019Z,3.67
2017-08-31T20:27:13.293Z,3.17
2017-08-31T20:30:14.640Z,3.87
2017-08-31T20:33:16.104Z,3.60
2017-08-31T20:36:17.437Z,3.80
2017-08-31T20:39:18.793Z,3.93
2017-08-31T20:42:20.120Z,3.33
2017-08-31T20:45:21.488Z,3.37
2017-08-31T20:48:22.832Z,3.37
2017-08-31T20:51:31.140Z,3.40
2017-08-31T20:54:32.477Z,3.63
2017-08-31T20:57:33.757Z,4.80
2017-08-31T21:00:35.525Z,3.57
2017-08-31T21:03:36.976Z,3.77
2017-08-31T21:06:38.306Z,4.10
2017-08-31T21:09:39.649Z,4.20
2017-08-31T21:12:40.950Z,3.33
2017-08-31T21:15:42.320Z,4.20
2017-08-31T21:18:50.496Z,4.93
2017-08-31T21:21:51.795Z,4.87
2017-08-31T21:24:53.142Z,3.83
2017-08-31T21:27:54.447Z,3.67
2017-08-31T21:30:55.773Z,3.30
2017-08-31T21:33:57.116Z,4.30
2017-08-31T21:36:58.473Z,3.23
2017-08-31T21:40:00.137Z,3.93
2017-08-31T21:43:01.457Z,3.57
2017-08-31T21:46:02.828Z,3.07
2017-08-31T21:49:04.137Z,4.40
2017-08-31T21:52:05.481Z,3.90
2017-08-31T21:55:06.790Z,3.60
2017-08-31T21:58:08.161Z,4.03
2017-08-31T22:01:09.477Z,4.67
2017-08-31T22:04:10.825Z,3.93
2017-08-31T22:07:12.163Z,4.43
2017-08-31T22:10:13.505Z,4.00
2017-08-31T22:13:14.805Z,4.70
2017-08-31T22:16:16.122Z,4.80
2017-08-31T22:19:17.425Z,4.10
2017-08-31T22:22:18.784Z,3.53
2017-08-31T22:25:20.113Z,4.67
2017-08-31T22:28:21.418Z,4.33
2017-08-31T22:31:22.743Z,3.90
2017-08-31T22:34:24.081Z,4.47
2017-08-31T22:37:25.433Z,4.00
2017-08-31T22:40:26.794Z,3.90
2017-08-31T22:43:28.176Z,3.80
2017-08-31T22:46:29.469Z,4.67
2017-08-31T22:49:30.828Z,4.53
2017-08-31T22:52:32.161Z,3.30
2017-08-31T22:55:34.865Z,3.77
2017-08-31T22:58:42.253Z,4.10
2017-08-31T23:01:43.565Z,3.60
2017-08-31T23:04:44.900Z,4.17
2017-08-31T23:07:46.182Z,3.23
2017-08-31T23:10:47.573Z,4.20
2017-08-31T23:13:55.890Z,3.43
2017-08-31T23:16:57.236Z,5.00
2017-08-31T23:19:58.680Z,4.80
2017-08-31T23:23:00.025Z,4.67
2017-08-31T23:26:01.414Z,4.40
2017-08-31T23:29:02.701Z,4.53
2017-08-31T23:32:04.052Z,4.50
2017-08-31T23:35:05.370Z,4.37
2017-08-31T23:38:06.713Z,4.30
2017-08-31T23:41:08.053Z,4.27
2017-08-31T23:44:09.408Z,4.90
2017-08-31T23:47:10.769Z,4.40
2017-08-31T23:50:12.041Z,4.63
2017-08-31T23:53:13.370Z,5.53
2017-08-31T23:56:14.708Z,4.93
2017-08-31T23:59:16.042Z,4.80
